createdAt,value
2022-11-01T00:01:30.684Z,99.90
2022-11-01T00:05:34.954Z,99.90
2022-11-01T00:09:37.825Z,99.90
2022-11-01T00:13:40.716Z,99.90
2022-11-01T00:17:43.591Z,99.90
2022-11-01T00:21:47.819Z,99.90
2022-11-01T00:25:50.647Z,99.90
2022-11-01T00:29:53.528Z,99.90
2022-11-01T00:33:56.935Z,99.90
2022-11-01T00:38:01.458Z,99.90
2022-11-01T00:42:04.667Z,99.90
2022-11-01T00:46:07.524Z,99.90
2022-11-01T00:50:12.170Z,99.90
2022-11-01T00:54:16.415Z,99.90
2022-11-01T00:58:19.429Z,99.90
2022-11-01T01:02:22.367Z,99.90
2022-11-01T01:06:25.361Z,99.90
2022-11-01T01:10:29.699Z,99.90
2022-11-01T01:14:32.859Z,99.90
2022-11-01T01:18:35.757Z,99.90
2022-11-01T01:22:38.684Z,99.90
2022-11-01T01:26:43.707Z,99.90
2022-11-01T01:30:46.573Z,99.90
2022-11-01T01:34:49.663Z,99.90
2022-11-01T01:38:53.242Z,99.90
2022-11-01T01:42:57.501Z,99.90
2022-11-01T01:47:00.365Z,99.90
2022-11-01T01:51:04.942Z,99.90
2022-11-01T01:55:10.084Z,99.90
2022-11-01T01:59:14.389Z,99.90
2022-11-01T02:03:17.377Z,99.90
2022-11-01T02:07:20.291Z,99.90
2022-11-01T02:11:23.588Z,99.90
2022-11-01T02:15:30.051Z,99.90
2022-11-01T02:19:52.022Z,99.90
2022-11-01T02:24:02.822Z,99.90
2022-11-01T02:28:17.005Z,99.90
2022-11-01T02:32:23.951Z,99.90
2022-11-01T02:36:31.491Z,99.90
2022-11-01T02:40:36.241Z,99.90
2022-11-01T02:44:41.511Z,99.90
2022-11-01T02:48:46.177Z,99.90
2022-11-01T02:52:49.214Z,99.90
2022-11-01T02:56:52.293Z,99.90
2022-11-01T03:00:56.822Z,99.90
2022-11-01T03:05:01.218Z,99.90
2022-11-01T03:09:06.249Z,99.90
2022-11-01T03:13:13.722Z,99.90
2022-11-01T03:17:19.915Z,99.90
2022-11-01T03:21:25.838Z,99.90
2022-11-01T03:25:40.953Z,99.90
2022-11-01T03:29:45.593Z,99.90
2022-11-01T03:33:50.055Z,99.90
2022-11-01T03:37:55.998Z,99.90
2022-11-01T03:42:02.534Z,99.90
2022-11-01T03:46:05.612Z,99.90
2022-11-01T03:50:12.126Z,99.90
2022-11-01T03:54:16.440Z,99.90
2022-11-01T03:58:19.331Z,99.90
2022-11-01T04:02:22.167Z,99.90
2022-11-01T04:06:25.013Z,99.90
2022-11-01T04:10:30.073Z,99.90
2022-11-01T04:14:50.435Z,99.90
2022-11-01T04:19:10.754Z,99.90
2022-11-01T04:23:13.610Z,99.90
2022-11-01T04:27:17.812Z,99.90
2022-11-01T04:31:20.649Z,99.90
2022-11-01T04:35:23.789Z,99.90
2022-11-01T04:39:26.635Z,99.90
2022-11-01T04:43:30.838Z,99.90
2022-11-01T04:47:33.713Z,99.90
2022-11-01T04:55:42.548Z,99.90
2022-11-01T04:59:46.768Z,99.90
2022-11-01T05:03:49.709Z,99.90
2022-11-01T05:07:52.663Z,99.90
2022-11-01T05:11:55.583Z,99.90
2022-11-01T05:16:18.401Z,99.90
2022-11-01T05:20:22.506Z,99.90
2022-11-01T05:24:25.370Z,99.90
2022-11-01T05:28:28.200Z,99.90
2022-11-01T05:32:32.421Z,99.90
2022-11-01T05:36:36.130Z,99.90
2022-11-01T05:40:39.003Z,99.90
2022-11-01T05:44:41.856Z,99.90
2022-11-01T05:48:46.226Z,99.90
2022-11-01T05:52:50.055Z,99.90
2022-11-01T05:56:52.942Z,99.90
2022-11-01T06:00:58.082Z,99.90
2022-11-01T06:05:03.181Z,99.90
2022-11-01T06:09:06.302Z,99.90
2022-11-01T06:13:09.322Z,99.90
2022-11-01T06:17:13.499Z,99.90
2022-11-01T06:21:17.710Z,99.90
2022-11-01T06:25:20.589Z,99.90
2022-11-01T06:29:23.433Z,99.90
2022-11-01T06:33:26.309Z,99.90
2022-11-01T06:37:30.501Z,99.90
2022-11-01T06:41:33.564Z,99.90
2022-11-01T06:45:40.179Z,99.90
2022-11-01T06:49:45.158Z,99.90
2022-11-01T06:53:49.391Z,99.90
2022-11-01T06:57:56.730Z,99.90
2022-11-01T07:01:59.898Z,99.90
2022-11-01T07:06:02.908Z,99.90
2022-11-01T07:10:08.427Z,99.90
2022-11-01T07:14:11.268Z,99.90
2022-11-01T07:18:14.162Z,99.90
2022-11-01T07:22:22.916Z,99.90
2022-11-01T07:26:27.218Z,99.90
2022-11-01T07:30:30.163Z,99.90
2022-11-01T07:34:33.064Z,99.90
2022-11-01T07:38:35.951Z,99.90
2022-11-01T07:42:43.974Z,99.90
2022-11-01T07:46:46.830Z,99.90
2022-11-01T07:50:49.682Z,99.90
2022-11-01T07:54:52.835Z,99.90
2022-11-01T07:58:57.078Z,99.90
2022-11-01T08:03:03.556Z,99.90
2022-11-01T08:07:06.708Z,99.90
2022-11-01T08:11:09.529Z,99.90
2022-11-01T08:15:15.201Z,99.90
2022-11-01T08:19:18.112Z,99.90
2022-11-01T08:23:21.010Z,99.90
2022-11-01T08:27:23.941Z,99.90
2022-11-01T08:31:28.134Z,99.90
2022-11-01T08:35:31.499Z,99.90
2022-11-01T08:39:34.480Z,99.90
2022-11-01T08:43:40.512Z,99.90
2022-11-01T08:47:45.120Z,99.90
2022-11-01T08:51:49.020Z,99.90
2022-11-01T08:55:55.303Z,99.90
2022-11-01T08:59:58.178Z,99.90
2022-11-01T09:04:02.419Z,99.90
2022-11-01T09:08:05.815Z,99.90
2022-11-01T09:12:14.084Z,99.90
2022-11-01T09:16:17.726Z,99.90
2022-11-01T09:20:22.095Z,99.90
2022-11-01T09:24:25.214Z,99.90
2022-11-01T09:28:32.838Z,99.90
2022-11-01T09:32:36.674Z,99.90
2022-11-01T09:36:40.983Z,99.90
2022-11-01T09:40:46.825Z,99.90
2022-11-01T09:44:52.053Z,99.90
2022-11-01T09:48:55.454Z,99.90
2022-11-01T09:53:00.499Z,99.90
2022-11-01T09:57:06.914Z,99.90
2022-11-01T10:01:18.175Z,99.90
2022-11-01T10:05:28.616Z,99.90
2022-11-01T10:09:39.108Z,99.90
2022-11-01T10:13:48.425Z,99.90
2022-11-01T10:17:52.826Z,99.90
2022-11-01T10:22:01.204Z,99.90
2022-11-01T10:26:05.796Z,99.90
2022-11-01T10:30:13.390Z,99.90
2022-11-01T10:34:21.769Z,99.30
2022-11-01T10:38:41.846Z,99.90
2022-11-01T10:42:53.394Z,99.90
2022-11-01T10:46:56.659Z,99.60
2022-11-01T10:55:04.523Z,97.50
2022-11-01T10:59:13.077Z,97.20
2022-11-01T11:03:18.824Z,96.70
2022-11-01T11:07:24.194Z,93.90
2022-11-01T11:11:32.149Z,94.50
2022-11-01T11:15:39.137Z,95.60
2022-11-01T11:19:43.290Z,95.00
2022-11-01T11:23:47.117Z,94.60
2022-11-01T11:27:53.003Z,97.20
2022-11-01T11:31:59.178Z,96.50
2022-11-01T11:36:02.051Z,97.10
2022-11-01T11:40:19.815Z,95.80
2022-11-01T11:44:42.685Z,95.90
2022-11-01T11:48:52.224Z,95.30
2022-11-01T11:52:59.038Z,93.00
2022-11-01T11:57:10.870Z,93.80
2022-11-01T12:01:15.461Z,93.40
2022-11-01T12:05:22.512Z,94.20
2022-11-01T12:09:37.434Z,95.90
2022-11-01T12:13:41.622Z,92.60
2022-11-01T12:17:45.662Z,92.80
2022-11-01T12:21:50.271Z,95.50
2022-11-01T12:25:53.826Z,96.30
2022-11-01T12:30:01.637Z,95.10
2022-11-01T12:34:06.468Z,95.70
2022-11-01T12:38:30.274Z,95.20
2022-11-01T12:42:38.381Z,95.90
2022-11-01T12:46:44.180Z,95.70
2022-11-01T12:50:48.965Z,97.40
2022-11-01T12:54:57.736Z,97.00
2022-11-01T12:59:02.102Z,97.40
2022-11-01T13:03:13.291Z,97.10
2022-11-01T13:07:26.555Z,96.90
2022-11-01T13:11:33.102Z,97.50
2022-11-01T13:15:40.292Z,98.20
2022-11-01T13:19:45.695Z,98.70
2022-11-01T13:23:53.199Z,98.70
2022-11-01T13:28:05.197Z,98.80
2022-11-01T13:32:11.897Z,99.10
2022-11-01T13:36:18.989Z,99.30
2022-11-01T13:40:26.197Z,99.10
2022-11-01T13:44:30.618Z,99.60
2022-11-01T13:48:39.100Z,99.90
2022-11-01T13:52:43.723Z,99.80
2022-11-01T13:56:50.783Z,99.90
2022-11-01T14:00:54.549Z,99.90
2022-11-01T14:04:59.373Z,99.90
2022-11-01T14:09:19.242Z,99.90
2022-11-01T14:13:36.430Z,99.90
2022-11-01T14:17:55.188Z,99.90
2022-11-01T14:22:00.378Z,99.90
2022-11-01T14:26:33.257Z,99.90
2022-11-01T14:30:38.477Z,99.90
2022-11-01T14:34:42.741Z,99.90
2022-11-01T14:38:50.131Z,99.90
2022-11-01T14:42:54.517Z,99.90
2022-11-01T14:46:59.147Z,99.90
2022-11-01T14:51:04.869Z,99.90
2022-11-01T14:55:15.598Z,99.90
2022-11-01T14:59:20.990Z,99.90
2022-11-01T15:03:24.035Z,99.90
2022-11-01T15:07:30.859Z,99.90
2022-11-01T15:11:36.080Z,99.90
2022-11-01T15:15:39.485Z,99.90
2022-11-01T15:19:45.252Z,99.90
2022-11-01T15:23:48.924Z,99.90
2022-11-01T15:27:54.496Z,99.90
2022-11-01T15:31:58.632Z,99.90
2022-11-01T15:36:02.990Z,99.90
2022-11-01T15:40:21.482Z,99.90
2022-11-01T15:44:26.728Z,99.90
2022-11-01T15:48:31.381Z,99.90
2022-11-01T15:52:35.289Z,99.90
2022-11-01T15:56:42.610Z,99.90
2022-11-01T16:00:49.350Z,99.90
2022-11-01T16:04:53.520Z,99.90
2022-11-01T16:08:59.045Z,99.90
2022-11-01T16:13:02.724Z,99.90
2022-11-01T16:17:09.886Z,99.90
2022-11-01T16:21:24.395Z,99.90
2022-11-01T16:25:28.335Z,99.90
2022-11-01T16:29:42.628Z,99.90
2022-11-01T16:33:53.661Z,99.90
2022-11-01T16:37:56.502Z,99.90
2022-11-01T16:42:00.168Z,99.90
2022-11-01T16:46:04.444Z,99.90
2022-11-01T16:50:16.403Z,99.90
2022-11-01T16:54:19.308Z,99.90
2022-11-01T16:58:23.624Z,99.90
2022-11-01T17:02:28.044Z,99.90
2022-11-01T17:06:36.161Z,99.90
2022-11-01T17:10:41.512Z,99.90
2022-11-01T17:14:45.819Z,99.90
2022-11-01T17:18:49.728Z,99.90
2022-11-01T17:22:54.833Z,99.90
2022-11-01T17:27:00.155Z,99.90
2022-11-01T17:31:03.282Z,99.90
2022-11-01T17:35:06.795Z,99.90
2022-11-01T17:39:12.034Z,99.90
2022-11-01T17:43:16.475Z,99.90
2022-11-01T17:47:19.416Z,99.90
2022-11-01T17:51:23.186Z,99.90
2022-11-01T17:55:27.468Z,99.90
2022-11-01T17:59:30.951Z,99.90
2022-11-01T18:03:33.835Z,99.90
2022-11-01T18:07:38.125Z,99.90
2022-11-01T18:11:46.199Z,99.90
2022-11-01T18:15:53.401Z,99.90
2022-11-01T18:19:58.717Z,99.90
2022-11-01T18:24:03.234Z,99.90
2022-11-01T18:28:12.218Z,99.90
2022-11-01T18:32:17.991Z,99.90
2022-11-01T18:36:22.539Z,99.90
2022-11-01T18:40:27.754Z,99.90
2022-11-01T18:44:33.490Z,99.90
2022-11-01T18:48:36.437Z,99.90
2022-11-01T18:52:39.291Z,99.90
2022-11-01T18:56:44.629Z,99.90
2022-11-01T19:00:50.265Z,99.90
2022-11-01T19:04:53.901Z,99.90
2022-11-01T19:08:57.965Z,99.90
2022-11-01T19:13:00.890Z,99.90
2022-11-01T19:17:05.373Z,99.90
2022-11-01T19:21:14.246Z,99.90
2022-11-01T19:25:21.704Z,99.90
2022-11-01T19:29:26.992Z,99.90
2022-11-01T19:33:33.454Z,99.90
2022-11-01T19:37:37.554Z,99.90
2022-11-01T19:41:41.006Z,99.90
2022-11-01T19:45:46.869Z,99.90
2022-11-01T19:49:51.160Z,99.90
2022-11-01T19:53:54.614Z,99.90
2022-11-01T19:57:57.585Z,99.90
2022-11-01T20:02:05.103Z,99.90
2022-11-01T20:06:16.340Z,99.90
2022-11-01T20:10:19.322Z,99.90
2022-11-01T20:14:22.260Z,99.90
2022-11-01T20:18:25.089Z,99.90
2022-11-01T20:22:29.845Z,99.90
2022-11-01T20:26:33.839Z,99.90
2022-11-01T20:30:36.700Z,99.90
2022-11-01T20:34:39.930Z,99.90
2022-11-01T20:38:44.704Z,99.90
2022-11-01T20:42:47.553Z,99.90
2022-11-01T20:46:50.473Z,99.90
2022-11-01T20:50:53.555Z,99.90
2022-11-01T20:54:57.971Z,99.90
2022-11-01T21:03:14.139Z,99.90
2022-11-01T21:07:17.012Z,99.90
2022-11-01T21:11:43.900Z,99.90
2022-11-01T21:15:47.290Z,99.90
2022-11-01T21:19:52.265Z,99.90
2022-11-01T21:23:55.130Z,99.90
2022-11-01T21:27:59.363Z,99.90
2022-11-01T21:32:03.162Z,99.90
2022-11-01T21:36:15.183Z,99.90
2022-11-01T21:40:23.635Z,99.90
2022-11-01T21:44:30.216Z,99.90
2022-11-01T21:48:34.486Z,99.90
2022-11-01T21:56:40.489Z,99.90
2022-11-01T22:00:45.313Z,99.90
2022-11-01T22:04:48.291Z,99.90
2022-11-01T22:08:51.510Z,99.90
2022-11-01T22:12:54.545Z,99.90
2022-11-01T22:17:00.389Z,99.90
2022-11-01T22:21:03.655Z,99.90
2022-11-01T22:25:06.989Z,99.90
2022-11-01T22:29:09.830Z,99.90
2022-11-01T22:33:15.072Z,99.90
2022-11-01T22:37:18.920Z,99.90
2022-11-01T22:41:28.378Z,99.90
2022-11-01T22:45:35.375Z,99.90
2022-11-01T22:49:42.303Z,99.90
2022-11-01T22:53:45.219Z,99.90
2022-11-01T22:57:49.385Z,99.90
2022-11-01T23:01:53.287Z,99.90
2022-11-01T23:05:58.794Z,99.90
2022-11-01T23:10:06.172Z,99.90
2022-11-01T23:14:28.909Z,99.90
2022-11-01T23:18:33.369Z,99.90
2022-11-01T23:22:37.647Z,99.90
2022-11-01T23:26:40.519Z,99.90
2022-11-01T23:30:43.973Z,99.90
2022-11-01T23:34:47.358Z,99.90
2022-11-01T23:38:53.432Z,99.90
2022-11-01T23:42:56.302Z,99.90
2022-11-01T23:47:01.121Z,99.90
2022-11-01T23:51:05.830Z,99.90
2022-11-01T23:55:17.452Z,99.90
2022-11-01T23:59:20.696Z,99.90
